Time;durP1;ratioP1;P1;durP2;ratioP2;P2;SDS_P1;SDS_P2;PMS_P1;PMS_P2;Temp;Humidity;BMP_temperature;BMP_pressure;BME280_temperature;BME280_humidity;BME280_pressure;Samples;Min_cycle;Max_cycle;Signal;HPM_P1;HPM_P2
2022/02/06 00:01:44;;;;;;;29.00;18.40;;;;;;;;;;5069837;28;20277;-64
2022/02/06 00:04:11;;;;;;;24.42;17.83;;;;;;;;;;5087264;28;20062;-64
2022/02/06 00:06:37;;;;;;;20.98;18.35;;;;;;;;;;5079454;28;20073;-64
2022/02/06 00:09:03;;;;;;;24.77;22.42;;;;;;;;;;5079371;28;20093;-62
2022/02/06 00:11:29;;;;;;;29.17;26.13;;;;;;;;;;5064615;28;20426;-64
2022/02/06 00:13:56;;;;;;;25.08;22.83;;;;;;;;;;5091531;28;20054;-57
2022/02/06 00:16:22;;;;;;;25.60;23.35;;;;;;;;;;5091581;28;20100;-65
2022/02/06 00:18:48;;;;;;;27.83;25.30;;;;;;;;;;5091083;28;20385;-64
2022/02/06 00:21:17;;;;;;;22.98;20.60;;;;;;;;;;5091847;28;20062;-67
2022/02/06 00:23:46;;;;;;;21.45;18.83;;;;;;;;;;5091524;28;20098;-65
2022/02/06 00:29:24;;;;;;;27.00;24.60;;;;;;;;;;5071013;28;20044;-63
2022/02/06 00:34:45;;;;;;;27.83;25.25;;;;;;;;;;5091177;28;20217;-62
2022/02/06 00:39:49;;;;;;;30.40;27.75;;;;;;;;;;5091011;28;20058;-64
2022/02/06 00:42:15;;;;;;;26.67;24.17;;;;;;;;;;5090831;28;20055;-63
2022/02/06 00:44:41;;;;;;;27.58;24.70;;;;;;;;;;5090285;28;20501;-63
2022/02/06 00:47:07;;;;;;;26.33;24.02;;;;;;;;;;5090921;28;20103;-62
2022/02/06 00:49:33;;;;;;;27.35;24.73;;;;;;;;;;5071245;28;20032;-63
2022/02/06 00:52:15;;;;;;;30.63;28.10;;;;;;;;;;5072539;28;20058;-61
2022/02/06 00:54:41;;;;;;;34.38;31.20;;;;;;;;;;5072161;28;20021;-66
2022/02/06 00:57:08;;;;;;;34.00;31.10;;;;;;;;;;5055339;28;20040;-62
2022/02/06 00:59:34;;;;;;;36.10;33.03;;;;;;;;;;5073185;28;20017;-63
2022/02/06 01:02:00;;;;;;;40.38;37.28;;;;;;;;;;5073249;28;20029;-63
2022/02/06 01:04:28;;;;;;;33.78;30.88;;;;;;;;;;5095124;23;20097;-59
2022/02/06 01:06:54;;;;;;;33.87;30.97;;;;;;;;;;5094697;28;20027;-58
2022/02/06 01:09:20;;;;;;;37.20;33.80;;;;;;;;;;5094481;28;20099;-57
2022/02/06 01:11:48;;;;;;;38.63;35.72;;;;;;;;;;5094315;28;20494;-59
2022/02/06 01:14:29;;;;;;;41.00;37.88;;;;;;;;;;5094045;28;20077;-58
2022/02/06 01:17:16;;;;;;;32.72;30.10;;;;;;;;;;5094633;28;20080;-54
2022/02/06 01:19:57;;;;;;;30.80;28.20;;;6.00;99.90;;;;;;5094206;28;20024;-56
2022/02/06 01:22:26;;;;;;;29.98;27.40;;;6.10;99.90;;;;;;5094219;28;20024;-54
2022/02/06 01:25:04;;;;;;;33.10;29.48;;;;;;;;;;5092580;28;20042;-55
2022/02/06 01:27:49;;;;;;;26.65;21.90;;;;;;;;;;5076196;28;20064;-57
2022/02/06 01:30:19;;;;;;;22.75;20.52;;;;;;;;;;5075957;28;20579;-58
2022/02/06 01:33:12;;;;;;;25.13;22.55;;;;;;;;;;5094293;28;20031;-59
2022/02/06 01:35:40;;;;;;;25.05;19.48;;;;;;;;;;5093009;28;20028;-58
2022/02/06 01:41:08;;;;;;;26.95;24.15;;;;;;;;;;5093973;28;20024;-60
2022/02/06 01:43:43;;;;;;;28.17;23.73;;;;;;;;;;5093118;28;20059;-58
2022/02/06 02:19:10;;;;;;;33.88;30.92;;;;;;;;;;5093265;28;20107;-61
2022/02/06 02:46:28;;;;;;;35.85;33.25;;;;;;;;;;5093123;28;20024;-56
2022/02/06 02:48:23;;;;;;;36.00;33.13;;;6.10;99.90;;;;;;5075166;28;20028;-54
2022/02/06 02:50:56;;;;;;;32.85;30.15;;;6.30;99.90;;;;;;5092616;28;20028;-57
2022/02/06 03:03:27;;;;;;;35.65;32.75;;;;;;;;;;5092237;28;20434;-57
2022/02/06 03:05:55;;;;;;;32.65;29.95;;;;;;;;;;5092199;28;20110;-57
2022/02/06 03:08:21;;;;;;;34.90;31.77;;;;;;;;;;5092441;28;20016;-59
2022/02/06 03:10:50;;;;;;;35.08;32.35;;;;;;;;;;5092214;28;20020;-53
2022/02/06 03:13:19;;;;;;;32.30;29.73;;;;;;;;;;5074003;28;20483;-57
2022/02/06 03:16:03;;;;;;;35.80;32.75;;;;;;;;;;5092058;28;20020;-53
2022/02/06 03:18:34;;;;;;;31.20;28.70;;;;;;;;;;5074167;28;20016;-58
2022/02/06 03:21:01;;;;;;;33.47;30.75;;;;;;;;;;5092124;28;20055;-57
2022/02/06 03:23:28;;;;;;;35.90;32.63;;;;;;;;;;5074071;28;20031;-57
2022/02/06 03:25:54;;;;;;;32.85;29.85;;;;;;;;;;5092039;28;20035;-56
2022/02/06 03:28:21;;;;;;;32.45;29.52;;;;;;;;;;5092215;28;20024;-57
2022/02/06 03:30:47;;;;;;;31.35;28.80;;;;;;;;;;5091884;28;20145;-55
2022/02/06 03:33:13;;;;;;;30.88;27.98;;;;;;;;;;5091978;28;20052;-57
2022/02/06 03:35:40;;;;;;;29.52;26.70;;;;;;;;;;5073536;28;20073;-57
2022/02/06 03:38:06;;;;;;;28.92;26.35;;;;;;;;;;5091911;28;20387;-58
2022/02/06 03:40:39;;;;;;;29.17;26.77;;;;;;;;;;5092079;28;20451;-55
2022/02/06 03:43:11;;;;;;;29.23;26.50;;;;;;;;;;5091914;28;20016;-57
2022/02/06 03:45:43;;;;;;;29.70;27.08;;;;;;;;;;5091915;28;20020;-59
2022/02/06 03:48:21;;;;;;;29.67;26.90;;;;;;;;;;5077465;28;20483;-55
2022/02/06 03:50:50;;;;;;;30.08;27.25;;;;;;;;;;5096034;28;20032;-58
2022/02/06 03:53:19;;;;;;;28.05;25.58;;;6.20;99.90;;;;;;5077712;28;20087;-57
2022/02/06 03:55:48;;;;;;;29.00;26.40;;;6.20;99.90;;;;;;5096261;28;20017;-61
2022/02/06 03:58:13;;;;;;;27.00;24.50;;;6.20;99.90;;;;;;5096558;28;20020;-60
2022/02/06 04:00:39;;;;;;;28.75;26.10;;;6.30;99.90;;;;;;5096127;28;20112;-61
2022/02/06 04:03:05;;;;;;;29.70;27.15;;;6.20;99.90;;;;;;5095462;28;20063;-60
2022/02/06 04:05:31;;;;;;;29.38;26.63;;;6.30;99.90;;;;;;5078034;28;20040;-60
2022/02/06 04:07:56;;;;;;;29.33;26.58;;;6.30;99.90;;;;;;5096604;28;20028;-61
2022/02/06 04:10:22;;;;;;;27.02;24.73;;;6.30;99.90;;;;;;5096309;28;20035;-60
2022/02/06 04:12:50;;;;;;;30.05;27.45;;;6.30;99.90;;;;;;5096147;28;20440;-61
2022/02/06 04:15:25;;;;;;;30.15;27.65;;;6.40;99.90;;;;;;5095703;28;20475;-62
2022/02/06 04:18:06;;;;;;;28.55;25.83;;;6.30;99.90;;;;;;5096073;28;20049;-61
2022/02/06 04:20:32;;;;;;;27.75;25.35;;;6.40;99.90;;;;;;5095966;28;20019;-59
2022/02/06 04:22:57;;;;;;;29.80;27.10;;;6.40;99.90;;;;;;5095750;28;20028;-60
2022/02/06 04:25:23;;;;;;;27.70;25.40;;;6.40;99.90;;;;;;5095523;28;20017;-57
2022/02/06 04:27:49;;;;;;;28.08;25.58;;;;;;;;;;5077550;28;20403;-59
2022/02/06 04:30:15;;;;;;;26.20;23.83;;;;;;;;;;5077383;28;20024;-59
2022/02/06 04:32:41;;;;;;;27.73;23.52;;;;;;;;;;5095586;28;20547;-56
2022/02/06 04:35:14;;;;;;;27.23;24.92;;;;;;;;;;5077040;28;20460;-61
2022/02/06 04:37:54;;;;;;;24.23;22.13;;;;;;;;;;5076909;28;20035;-57
2022/02/06 04:43:47;;;;;;;23.98;21.80;;;;;;;;;;5095122;28;20021;-56
2022/02/06 04:46:10;;;;;;;25.05;22.75;;;;;;;;;;5081196;28;20028;-55
2022/02/06 05:15:12;;;;;;;28.77;26.48;;;;;;;;;;5094519;28;20032;-58
2022/02/06 05:31:07;;;;;;;35.67;33.15;;;;;;;;;;5094079;28;20391;-58
2022/02/06 05:33:35;;;;;;;32.35;30.08;;;;;;;;;;5094170;28;20016;-58
2022/02/06 05:36:03;;;;;;;29.88;27.67;;;;;;;;;;5075601;28;20638;-54
2022/02/06 05:38:29;;;;;;;30.05;27.85;;;;;;;;;;5075999;28;20047;-58
2022/02/06 05:40:55;;;;;;;30.02;27.83;;;;;;;;;;5093946;28;20024;-59
2022/02/06 05:43:21;;;;;;;26.33;24.33;;;;;;;;;;5093893;28;20228;-55
2022/02/06 05:45:47;;;;;;;27.08;25.05;;;;;;;;;;5093697;28;20480;-58
2022/02/06 05:48:13;;;;;;;25.98;23.98;;;;;;;;;;5075665;28;20415;-58
2022/02/06 05:50:41;;;;;;;24.92;22.92;;;;;;;;;;5093668;28;20513;-57
2022/02/06 05:53:07;;;;;;;23.50;21.60;;;;;;;;;;5094034;28;20016;-59
2022/02/06 05:55:33;;;;;;;22.80;20.90;;;6.30;99.90;;;;;;5093640;28;20145;-59
2022/02/06 05:57:59;;;;;;;22.42;20.52;;;;;;;;;;5093815;28;20104;-61
2022/02/06 06:00:25;;;;;;;22.40;20.50;;;;;;;;;;5093437;28;20133;-57
2022/02/06 06:02:50;;;;;;;24.10;22.20;;;;;;;;;;5093361;28;20095;-58
2022/02/06 06:05:17;;;;;;;23.40;21.50;;;;;;;;;;5092922;28;20404;-59
2022/02/06 06:07:43;;;;;;;22.70;20.80;;;;;;;;;;5093499;28;20025;-60
2022/02/06 06:10:10;;;;;;;23.95;22.05;;;;;;;;;;5092794;28;20103;-56
2022/02/06 06:12:37;;;;;;;23.27;21.38;;;;;;;;;;5075246;28;20211;-61
2022/02/06 06:15:03;;;;;;;23.85;21.88;;;;;;;;;;5092895;28;20024;-59
2022/02/06 06:17:29;;;;;;;22.25;20.35;;;;;;;;;;5093265;28;20028;-60
2022/02/06 06:19:56;;;;;;;23.10;21.20;;;;;;;;;;5093277;28;20096;-59
2022/02/06 06:22:23;;;;;;;22.70;20.80;;;6.60;99.90;;;;;;5093171;28;20028;-58
2022/02/06 06:24:55;;;;;;;24.05;22.15;;;6.80;99.90;;;;;;5074636;28;20093;-58
2022/02/06 06:27:21;;;;;;;25.00;23.00;;;6.80;99.90;;;;;;5093297;28;20022;-56
2022/02/06 06:29:47;;;;;;;25.33;23.33;;;6.80;99.90;;;;;;5093249;28;20028;-59
2022/02/06 06:32:13;;;;;;;27.15;25.15;;;6.80;99.90;;;;;;5093070;28;20392;-58
2022/02/06 06:34:39;;;;;;;28.55;26.00;;;6.90;99.90;;;;;;5092698;28;20116;-59
2022/02/06 06:37:05;;;;;;;24.10;22.20;;;6.80;99.90;;;;;;5092806;28;20040;-60
2022/02/06 06:39:36;;;;;;;26.10;24.10;;;6.80;99.90;;;;;;5093068;28;20027;-59
2022/02/06 06:42:02;;;;;;;25.45;23.45;;;6.80;99.90;;;;;;5092955;28;20020;-61
2022/02/06 06:44:28;;;;;;;25.33;23.33;;;6.80;99.90;;;;;;5074399;28;20024;-58
2022/02/06 06:46:53;;;;;;;24.38;22.48;;;6.80;99.90;;;;;;5092803;28;20066;-60
2022/02/06 06:49:19;;;;;;;23.30;21.40;;;6.80;99.90;;;;;;5092678;28;20024;-60
2022/02/06 06:51:45;;;;;;;22.98;21.08;;;6.80;99.90;;;;;;5092973;28;20023;-58
2022/02/06 06:54:13;;;;;;;24.77;22.80;;;6.80;99.90;;;;;;5092567;28;20493;-59
2022/02/06 06:56:47;;;;;;;23.08;21.17;;;6.80;99.90;;;;;;5092795;28;20048;-60
2022/02/06 06:59:27;;;;;;;23.73;21.83;;;6.90;99.90;;;;;;5092598;28;20027;-60
2022/02/06 07:02:15;;;;;;;22.65;20.75;;;7.00;99.90;;;;;;5092535;28;20476;-58
2022/02/06 07:04:38;;;;;;;22.65;20.75;;;6.90;99.90;;;;;;5093172;28;20469;-60
2022/02/06 07:07:04;;;;;;;21.15;19.35;;;7.00;99.90;;;;;;5092593;28;20031;-60
2022/02/06 07:09:30;;;;;;;20.95;19.15;;;6.90;99.90;;;;;;5092547;28;20020;-62
2022/02/06 07:11:56;;;;;;;21.85;19.95;;;6.90;99.90;;;;;;5092335;28;20103;-59
2022/02/06 07:14:21;;;;;;;21.63;19.73;;;7.00;99.90;;;;;;5092196;28;20534;-60
2022/02/06 07:16:47;;;;;;;20.65;18.85;;;7.00;99.90;;;;;;5074186;28;20537;-62
2022/02/06 07:19:12;;;;;;;20.65;18.85;;;7.00;99.90;;;;;;5092615;28;20099;-57
2022/02/06 07:21:39;;;;;;;21.58;19.77;;;7.20;99.90;;;;;;5091364;28;20020;-59
2022/02/06 07:24:06;;;;;;;20.52;18.73;;;7.20;99.90;;;;;;5091930;28;20097;-60
2022/02/06 07:26:32;;;;;;;19.80;18.00;;;7.50;99.90;;;;;;5092177;28;20028;-60
2022/02/06 07:29:00;;;;;;;19.98;18.17;;;7.30;99.90;;;;;;5074235;28;20030;-57
2022/02/06 07:31:26;;;;;;;18.95;17.15;;;;;;;;;;5074099;28;20448;-59
2022/02/06 07:33:52;;;;;;;18.75;16.95;;;7.20;99.90;;;;;;5091993;28;20027;-60
2022/02/06 07:36:18;;;;;;;18.20;16.50;;;7.10;99.90;;;;;;5092000;28;20472;-60
2022/02/06 07:38:44;;;;;;;18.48;16.77;;;7.10;99.90;;;;;;5092094;28;20028;-59
2022/02/06 07:41:10;;;;;;;19.48;17.67;;;7.00;99.90;;;;;;5092187;28;20027;-60
2022/02/06 07:43:36;;;;;;;18.92;17.13;;;7.00;99.90;;;;;;5073977;28;20031;-57
2022/02/06 07:46:07;;;;;;;19.48;17.67;;;7.00;99.90;;;;;;5091861;28;20020;-59
2022/02/06 07:48:33;;;;;;;19.58;17.77;;;7.00;99.90;;;;;;5092225;28;20028;-59
2022/02/06 07:50:58;;;;;;;19.48;17.67;;;7.00;99.90;;;;;;5092188;28;20508;-61
2022/02/06 07:53:24;;;;;;;19.13;17.33;;;7.00;99.90;;;;;;5091779;28;20033;-58
2022/02/06 07:55:50;;;;;;;20.10;18.30;;;7.00;99.90;;;;;;5091772;28;20028;-61
2022/02/06 07:58:16;;;;;;;19.20;17.40;;;7.10;99.90;;;;;;5091849;28;20027;-58
2022/02/06 08:00:41;;;;;;;20.77;18.98;;;7.00;99.90;;;;;;5092045;28;20021;-60
2022/02/06 08:03:07;;;;;;;20.90;19.10;;;7.00;99.90;;;;;;5091639;28;20024;-62
2022/02/06 08:05:33;;;;;;;19.67;17.88;;;7.00;99.90;;;;;;5091469;28;20032;-58
2022/02/06 08:08:00;;;;;;;19.58;17.77;;;7.00;99.90;;;;;;5092053;28;20468;-59
2022/02/06 08:10:27;;;;;;;20.13;18.33;;;7.00;99.90;;;;;;5073864;28;20024;-60
2022/02/06 08:13:06;;;;;;;19.90;18.10;;;7.10;99.90;;;;;;5091657;28;20395;-60
2022/02/06 08:15:31;;;;;;;19.30;17.50;;;7.10;99.90;;;;;;5073722;28;20020;-60
2022/02/06 08:17:57;;;;;;;19.70;17.90;;;7.10;99.90;;;;;;5074009;28;20024;-60
2022/02/06 08:20:23;;;;;;;19.15;17.35;;;7.10;99.90;;;;;;5091757;28;20047;-61
2022/02/06 08:22:51;;;;;;;19.70;17.90;;;7.10;99.90;;;;;;5091619;28;20111;-58
2022/02/06 08:25:17;;;;;;;19.50;17.70;;;7.10;99.90;;;;;;5073273;28;20030;-60
2022/02/06 08:27:43;;;;;;;19.90;18.10;;;7.10;99.90;;;;;;5091718;28;20020;-57
2022/02/06 08:30:11;;;;;;;19.92;18.13;;;7.10;99.90;;;;;;5085257;28;20028;-60
2022/02/06 08:32:37;;;;;;;20.35;18.55;;;7.10;99.90;;;;;;5074908;28;20051;-62
2022/02/06 08:35:04;;;;;;;19.85;18.05;;;7.10;99.90;;;;;;5069464;28;20021;-60
2022/02/06 08:37:29;;;;;;;19.77;17.98;;;7.10;99.90;;;;;;5073246;28;20025;-61
2022/02/06 08:39:55;;;;;;;20.90;19.10;;;7.10;99.90;;;;;;5087024;28;20490;-60
2022/02/06 08:42:21;;;;;;;19.95;18.15;;;7.20;99.90;;;;;;5064569;28;20020;-63
2022/02/06 08:44:47;;;;;;;19.55;17.75;;;7.20;99.90;;;;;;5080208;28;20020;-62
2022/02/06 08:47:16;;;;;;;21.13;19.33;;;7.20;99.90;;;;;;5074789;28;20115;-62
2022/02/06 08:49:41;;;;;;;20.70;18.80;;;7.20;99.90;;;;;;5079741;28;20495;-61
2022/02/06 08:52:09;;;;;;;19.58;17.77;;;7.20;99.90;;;;;;5076706;28;20028;-62
2022/02/06 08:54:37;;;;;;;20.30;18.50;;;7.20;99.90;;;;;;5094707;28;20024;-62
2022/02/06 08:57:13;;;;;;;20.05;18.25;;;7.30;99.90;;;;;;5095227;28;20077;-60
2022/02/06 08:59:40;;;;;;;20.77;18.98;;;7.30;99.90;;;;;;5095310;28;20107;-61
2022/02/06 09:02:05;;;;;;;23.45;21.55;;;7.30;99.90;;;;;;5089629;28;20093;-60
2022/02/06 09:04:31;;;;;;;22.85;20.95;;;7.30;99.90;;;;;;5077088;28;20028;-60
2022/02/06 09:07:00;;;;;;;21.30;19.50;;;7.30;99.90;;;;;;5092460;28;20075;-62
2022/02/06 09:09:27;;;;;;;22.80;20.90;;;7.30;99.90;;;;;;5095029;28;20115;-61
2022/02/06 09:11:53;;;;;;;22.70;20.80;;;7.30;99.90;;;;;;5076446;28;20035;-53
2022/02/06 09:14:24;;;;;;;24.02;22.13;;;7.30;99.90;;;;;;5094900;28;20020;-57
2022/02/06 09:16:51;;;;;;;22.50;20.60;;;7.20;99.90;;;;;;5094492;28;20500;-58
2022/02/06 09:19:18;;;;;;;22.83;20.92;;;7.20;99.90;;;;;;5094474;28;20051;-57
2022/02/06 09:21:44;;;;;;;23.05;21.15;;;7.20;99.90;;;;;;5094971;28;20035;-64
2022/02/06 09:24:11;;;;;;;23.20;21.30;;;7.20;99.90;;;;;;5094709;28;20116;-63
2022/02/06 09:26:39;;;;;;;21.73;19.88;;;7.20;99.90;;;;;;5076494;28;20055;-62
2022/02/06 09:29:06;;;;;;;17.65;15.95;;;7.20;99.90;;;;;;5076529;28;20137;-63
2022/02/06 09:31:32;;;;;;;19.38;17.58;;;7.20;99.90;;;;;;5067484;28;20031;-60
2022/02/06 09:36:24;;;;;;;19.67;17.88;;;7.20;99.90;;;;;;5074303;28;20025;-64
2022/02/06 09:38:50;;;;;;;20.17;18.38;;;7.20;99.90;;;;;;5074152;28;20025;-64
2022/02/06 09:41:16;;;;;;;20.45;18.65;;;7.20;99.90;;;;;;5074034;28;20031;-64
2022/02/06 09:43:44;;;;;;;20.45;18.65;;;7.10;99.90;;;;;;5073304;28;20480;-60
2022/02/06 09:46:13;;;;;;;21.00;19.20;;;7.20;99.90;;;;;;5073526;28;20024;-65
2022/02/06 09:48:40;;;;;;;20.35;18.55;;;7.20;99.90;;;;;;5073813;28;20037;-64
2022/02/06 09:51:08;;;;;;;21.98;20.08;;;7.20;99.90;;;;;;5073673;28;20119;-65
2022/02/06 09:53:35;;;;;;;21.55;19.65;;;7.20;99.90;;;;;;5073924;28;20491;-63
2022/02/06 09:56:07;;;;;;;23.95;22.05;;;7.20;99.90;;;;;;5073723;28;20029;-63
2022/02/06 10:01:15;;;;;;;21.90;20.00;;;7.30;99.90;;;;;;5073625;28;20028;-64
2022/02/06 10:03:46;;;;;;;23.30;21.40;;;7.30;99.90;;;;;;5073340;28;20028;-67
2022/02/06 10:06:21;;;;;;;22.08;20.17;;;7.30;99.90;;;;;;5080384;28;20024;-65
2022/02/06 10:08:55;;;;;;;22.05;20.15;;;7.30;99.90;;;;;;5084619;28;20034;-64
2022/02/06 10:11:23;;;;;;;23.55;21.65;;;7.30;99.90;;;;;;5078887;28;20020;-62
2022/02/06 10:13:49;;;;;;;22.75;20.85;;;7.30;99.90;;;;;;5080948;28;20426;-61
2022/02/06 10:16:16;;;;;;;22.90;21.00;;;7.40;99.90;;;;;;5078732;28;20111;-66
2022/02/06 10:18:44;;;;;;;22.45;20.55;;;7.30;99.90;;;;;;5082115;28;20099;-65
2022/02/06 10:21:14;;;;;;;64.20;60.20;;;7.30;99.90;;;;;;5071991;28;20039;-60
2022/02/06 10:23:56;;;;;;;63.40;59.50;;;7.40;99.90;;;;;;5073029;28;20025;-59
2022/02/06 10:26:40;;;;;;;61.70;57.90;;;7.40;99.90;;;;;;5073160;28;20448;-59
2022/02/06 10:31:58;;;;;;;62.75;58.95;;;7.40;99.90;;;;;;5081129;28;20423;-61
2022/02/06 10:34:30;;;;;;;61.60;57.70;;;7.40;99.90;;;;;;5092732;28;20024;-59
2022/02/06 10:37:10;;;;;;;62.75;58.85;;;7.40;99.90;;;;;;5092987;28;20043;-63
2022/02/06 10:39:39;;;;;;;63.00;59.15;;;7.40;99.90;;;;;;5075070;28;20430;-62
2022/02/06 10:42:29;;;;;;;64.65;60.75;;;7.40;99.90;;;;;;5074538;28;20024;-62
2022/02/06 10:45:20;;;;;;;65.68;61.63;;;7.40;99.90;;;;;;5074753;28;20450;-61
2022/02/06 10:47:51;;;;;;;67.85;63.75;;;7.40;99.90;;;;;;5092354;28;20035;-60
2022/02/06 10:50:26;;;;;;;71.75;67.45;;;7.40;99.90;;;;;;5074728;28;20388;-60
2022/02/06 10:53:04;;;;;;;70.00;65.80;;;7.30;99.90;;;;;;5092534;28;20085;-61
2022/02/06 10:55:30;;;;;;;71.20;66.90;;;7.30;99.90;;;;;;5092393;28;20020;-60
2022/02/06 10:57:58;;;;;;;65.72;61.70;;;7.30;99.90;;;;;;5092774;28;20103;-60
2022/02/06 11:00:33;;;;;;;68.05;64.05;;;7.30;99.90;;;;;;5092717;28;20026;-60
2022/02/06 11:03:21;;;;;;;68.07;64.10;;;7.20;99.90;;;;;;5074556;28;20034;-64
2022/02/06 11:05:50;;;;;;;68.50;64.40;;;7.20;99.90;;;;;;5092696;28;20534;-62
2022/02/06 11:08:29;;;;;;;64.43;60.53;;;7.20;99.90;;;;;;5092768;28;20032;-61
2022/02/06 11:11:00;;;;;;;65.85;61.80;;;7.20;99.90;;;;;;5092693;28;20039;-62
2022/02/06 11:13:27;;;;;;;59.20;55.50;;;7.20;99.90;;;;;;5092504;28;20024;-62
2022/02/06 11:15:52;;;;;;;58.80;55.00;;;7.20;99.90;;;;;;5092450;28;20091;-62
2022/02/06 11:18:28;;;;;;;59.97;56.08;;;7.20;99.90;;;;;;5092398;28;20055;-62
2022/02/06 11:21:02;;;;;;;59.50;55.60;;;7.20;99.90;;;;;;5092699;28;20035;-61
2022/02/06 11:23:37;;;;;;;57.60;53.90;;;7.20;99.90;;;;;;5092153;28;20032;-60
2022/02/06 11:26:05;;;;;;;57.88;54.17;;;7.20;99.90;;;;;;5073744;28;20092;-60
2022/02/06 11:28:31;;;;;;;55.20;51.60;;;7.10;99.90;;;;;;5076165;28;20066;-60
2022/02/06 11:30:56;;;;;;;56.15;52.45;;;7.10;99.90;;;;;;5093224;28;20031;-58
2022/02/06 11:33:23;;;;;;;62.92;58.92;;;7.00;99.90;;;;;;5091898;28;20025;-58
2022/02/06 11:35:57;;;;;;;67.70;63.60;;;7.00;99.90;;;;;;5091773;28;20020;-60
2022/02/06 11:44:39;;;;;;;64.80;60.80;;;6.90;99.90;;;;;;5091664;28;20058;-59
2022/02/06 11:47:05;;;;;;;67.70;63.50;;;6.90;99.90;;;;;;5092170;28;20035;-61
2022/02/06 11:49:36;;;;;;;69.90;65.60;;;6.90;99.90;;;;;;5073759;28;20500;-61
2022/02/06 11:52:04;;;;;;;68.05;63.85;;;6.90;99.90;;;;;;5092014;28;20035;-61
2022/02/06 11:54:31;;;;;;;71.70;67.18;;;6.90;99.90;;;;;;5073201;28;20030;-61
2022/02/06 11:57:12;;;;;;;67.50;63.42;;;6.90;99.90;;;;;;5091583;28;20024;-58
2022/02/06 11:59:38;;;;;;;63.08;59.17;;;6.90;99.90;;;;;;5073833;28;20406;-60
2022/02/06 12:02:27;;;;;;;64.80;60.80;;;6.90;99.90;;;;;;5073722;28;20024;-57
2022/02/06 12:05:27;;;;;;;66.68;62.60;;;6.90;99.90;;;;;;5086323;28;20504;-61
2022/02/06 12:07:52;;;;;;;58.50;54.70;;;6.90;99.90;;;;;;5012200;28;20603;-56
2022/02/06 12:10:18;;;;;;;57.25;53.45;;;6.90;99.90;;;;;;5057632;28;20060;-58
2022/02/06 12:12:46;;;;;;;56.75;53.05;;;6.90;99.90;;;;;;5057504;28;20024;-61
2022/02/06 12:15:33;;;;;;;59.13;55.42;;;6.90;99.90;;;;;;5057078;28;20374;-59
2022/02/06 12:18:12;;;;;;;55.55;52.00;;;6.90;99.90;;;;;;5075341;28;20023;-59
2022/02/06 12:20:48;;;;;;;52.95;49.45;;;6.90;99.90;;;;;;5075427;28;20082;-58
2022/02/06 12:23:37;;;;;;;55.88;52.30;;;6.90;99.90;;;;;;5075270;28;20013;-61
2022/02/06 12:26:23;;;;;;;51.00;47.60;;;6.90;99.90;;;;;;5074984;28;20096;-61
2022/02/06 12:28:50;;;;;;;51.28;47.97;;;6.90;99.90;;;;;;5056942;28;20036;-62
2022/02/06 12:31:15;;;;;;;54.33;50.83;;;6.90;99.90;;;;;;4725537;28;10000288;-59
2022/02/06 12:33:54;;;;;;;41.72;38.72;;;6.90;99.90;;;;;;5063298;28;20070;-62
2022/02/06 12:39:39;;;;;;;51.38;47.97;;;6.90;99.90;;;;;;5044444;28;20773;-62
2022/02/06 12:42:09;;;;;;;55.45;51.95;;;6.90;99.90;;;;;;5054584;28;20065;-61
2022/02/06 12:44:35;;;;;;;58.45;54.85;;;7.00;99.90;;;;;;5071566;28;20037;-60
2022/02/06 12:47:04;;;;;;;56.92;53.42;;;7.00;99.90;;;;;;5071895;28;20040;-61
2022/02/06 12:49:32;;;;;;;62.35;58.45;;;7.00;99.90;;;;;;5060752;28;20028;-57
2022/02/06 12:51:59;;;;;;;59.90;56.20;;;7.10;99.90;;;;;;5071881;28;20033;-59
2022/02/06 12:54:26;;;;;;;58.45;54.85;;;7.00;99.90;;;;;;5053364;28;20021;-60
2022/02/06 12:56:57;;;;;;;61.47;57.78;;;7.10;99.90;;;;;;5071688;28;20040;-61
2022/02/06 12:59:26;;;;;;;59.20;55.60;;;7.10;99.90;;;;;;5053543;28;20020;-60
2022/02/06 13:01:55;;;;;;;59.20;55.60;;;7.10;99.90;;;;;;5071454;28;20031;-56
2022/02/06 13:06:51;;;;;;;53.38;50.08;;;7.10;99.90;;;;;;5070924;28;20051;-62
2022/02/06 13:09:19;;;;;;;49.88;46.67;;;7.10;99.90;;;;;;5074869;28;20021;-58
2022/02/06 13:11:56;;;;;;;51.15;47.95;;;6.70;99.90;;;;;;5073432;28;20037;-60
2022/02/06 13:23:03;;;;;;;53.65;50.25;;;4.80;99.90;;;;;;5052749;28;20555;-61
2022/02/06 13:31:00;;;;;;;;;;;;;;;;;;;;;
2022/02/06 13:39:24;;;;;;;56.15;52.80;;;4.70;99.90;;;;;;4994192;28;20522;-57
2022/02/06 13:41:51;;;;;;;51.85;48.65;;;4.80;99.90;;;;;;5066611;28;20044;-61
2022/02/06 13:44:19;;;;;;;51.08;47.88;;;4.80;99.90;;;;;;5073917;28;20507;-59
2022/02/06 13:46:46;;;;;;;;;;;4.90;99.90;;;;;;5074595;28;20387;-61
2022/02/06 13:49:12;;;;;;;52.85;49.65;;;4.90;99.90;;;;;;5073520;28;19912;-62
2022/02/06 13:51:44;;;;;;;52.08;48.88;;;4.80;99.90;;;;;;5074356;28;20028;-59
2022/02/06 13:54:10;;;;;;;51.80;48.60;;;4.90;99.90;;;;;;4721233;28;9999858;-61
2022/02/06 13:56:37;;;;;;;51.53;48.33;;;4.90;99.90;;;;;;5070866;28;20392;-60
2022/02/06 13:59:12;;;;;;;51.03;47.92;;;4.90;99.90;;;;;;5069488;28;20059;-62
2022/02/06 14:01:53;;;;;;;49.47;46.38;;;5.00;99.90;;;;;;5070907;28;20507;-61
2022/02/06 14:04:24;;;;;;;50.28;47.10;;;4.90;99.90;;;;;;5068918;28;20032;-61
2022/02/06 14:07:00;;;;;;;50.03;46.83;;;5.00;99.90;;;;;;5068276;28;20024;-58
2022/02/06 14:09:31;;;;;;;48.70;45.60;;;5.00;99.90;;;;;;5070826;28;20028;-59
2022/02/06 14:12:06;;;;;;;47.33;44.22;;;5.00;99.90;;;;;;5070606;28;20020;-59
2022/02/06 14:14:34;;;;;;;44.13;41.22;;;4.90;99.90;;;;;;5067843;28;20028;-64
2022/02/06 14:17:00;;;;;;;43.85;40.95;;;5.10;99.90;;;;;;5052035;28;20543;-63
2022/02/06 14:19:41;;;;;;;41.85;39.05;;;5.00;99.90;;;;;;5069652;28;20036;-60
2022/02/06 14:22:07;;;;;;;42.00;39.10;;;5.10;99.90;;;;;;5069805;28;20477;-60
2022/02/06 14:24:50;;;;;;;41.35;38.55;;;5.20;99.90;;;;;;5051860;28;20036;-61
2022/02/06 14:27:26;;;;;;;41.03;38.22;;;5.20;99.90;;;;;;5069677;28;20031;-62
2022/02/06 14:30:13;;;;;;;41.80;39.00;;;5.20;99.90;;;;;;5072846;28;20035;-63
2022/02/06 14:33:04;;;;;;;40.78;37.97;;;5.30;99.90;;;;;;4716056;28;10001411;-61
2022/02/06 14:35:49;;;;;;;40.47;37.67;;;5.30;99.90;;;;;;5031595;28;20028;-63
2022/02/06 14:43:56;;;;;;;38.35;35.55;;;5.30;99.90;;;;;;5069426;28;20071;-59
2022/02/06 14:46:22;;;;;;;38.75;35.95;;;5.30;99.90;;;;;;5069301;28;20074;-61
2022/02/06 14:48:47;;;;;;;38.75;35.95;;;5.30;99.90;;;;;;5070722;28;20032;-62
2022/02/06 14:51:15;;;;;;;40.47;37.67;;;5.30;99.90;;;;;;5054426;28;20539;-61
2022/02/06 14:53:43;;;;;;;39.25;36.45;;;5.30;99.90;;;;;;5070472;28;20031;-63
2022/02/06 14:56:09;;;;;;;40.05;37.05;;;5.20;99.90;;;;;;5053487;28;20484;-59
2022/02/06 14:58:36;;;;;;;39.72;36.92;;;5.30;99.90;;;;;;5054441;28;20032;-61
2022/02/06 15:01:02;;;;;;;40.75;37.85;;;5.30;99.90;;;;;;5072563;28;20039;-64
2022/02/06 15:03:27;;;;;;;39.28;36.47;;;5.30;99.90;;;;;;5071813;28;20400;-61
2022/02/06 15:05:53;;;;;;;39.47;36.67;;;5.30;99.90;;;;;;5071547;28;20032;-63
2022/02/06 15:08:19;;;;;;;40.25;37.45;;;5.30;99.90;;;;;;5071714;28;20028;-59
2022/02/06 15:10:46;;;;;;;40.50;37.65;;;5.20;99.90;;;;;;5072102;28;20047;-61
2022/02/06 15:13:13;;;;;;;41.08;38.22;;;5.30;99.90;;;;;;5072174;28;20433;-64
2022/02/06 15:16:03;;;;;;;40.83;37.92;;;5.30;99.90;;;;;;5053806;28;20017;-62
2022/02/06 15:18:47;;;;;;;42.08;39.08;;;5.30;99.90;;;;;;5072017;28;20028;-60
2022/02/06 15:21:12;;;;;;;41.22;38.33;;;5.30;99.90;;;;;;5052489;28;20377;-62
2022/02/06 15:23:40;;;;;;;40.95;38.05;;;5.30;99.90;;;;;;5051090;28;20035;-62
2022/02/06 15:26:07;;;;;;;41.20;38.30;;;5.40;99.90;;;;;;5039166;28;20029;-61
2022/02/06 15:28:33;;;;;;;41.13;38.22;;;5.40;99.90;;;;;;5034645;28;20392;-58
2022/02/06 15:30:58;;;;;;;40.47;37.67;;;5.40;99.90;;;;;;5035434;28;20029;-61
2022/02/06 15:33:24;;;;;;;39.70;36.90;;;5.40;99.90;;;;;;5054442;28;20028;-59
2022/02/06 15:35:51;;;;;;;39.40;36.60;;;5.40;99.90;;;;;;5053659;28;20033;-59
2022/02/06 15:38:18;;;;;;;39.33;36.53;;;5.50;99.90;;;;;;5072415;28;20476;-61
2022/02/06 15:40:44;;;;;;;37.70;34.90;;;5.40;99.90;;;;;;4704004;28;10000454;-61
2022/02/06 15:43:10;;;;;;;37.92;35.13;;;5.50;99.90;;;;;;5053857;28;20173;-63
2022/02/06 15:45:39;;;;;;;38.08;35.28;;;5.50;99.90;;;;;;5073487;28;20054;-59
2022/02/06 15:48:05;;;;;;;37.72;34.92;;;5.50;99.90;;;;;;5073634;28;20020;-61
2022/02/06 15:50:31;;;;;;;38.20;35.40;;;5.50;99.90;;;;;;5055491;28;20028;-60
2022/02/06 15:52:57;;;;;;;38.67;35.88;;;5.60;99.90;;;;;;5055452;28;20032;-62
2022/02/06 15:55:23;;;;;;;37.95;35.15;;;5.60;99.90;;;;;;5073284;28;20060;-60
2022/02/06 15:57:48;;;;;;;38.55;35.75;;;5.60;99.90;;;;;;5073839;28;20027;-59
2022/02/06 16:00:16;;;;;;;37.67;34.88;;;5.70;99.90;;;;;;5055454;28;20024;-62
2022/02/06 16:02:42;;;;;;;37.65;34.85;;;5.80;99.90;;;;;;5055439;28;20404;-61